createdAt,value
2022-11-25T00:01:34.124Z,72.74
2022-11-25T00:04:02.405Z,72.88
2022-11-25T00:06:35.049Z,72.12
2022-11-25T00:09:09.986Z,71.95
2022-11-25T00:11:40.639Z,71.71
2022-11-25T00:14:11.934Z,71.98
2022-11-25T00:16:43.643Z,72.24
2022-11-25T00:19:14.529Z,72.76
2022-11-25T00:21:42.838Z,72.98
2022-11-25T00:24:14.008Z,73.21
2022-11-25T00:26:42.263Z,72.92
2022-11-25T00:29:11.868Z,73.09
2022-11-25T00:31:41.168Z,73.16
2022-11-25T00:34:14.188Z,73.06
2022-11-25T00:36:42.673Z,73.27
2022-11-25T00:39:13.718Z,73.52
2022-11-25T00:42:01.107Z,73.80
2022-11-25T00:44:42.252Z,73.93
2022-11-25T00:47:16.883Z,73.98
2022-11-25T00:49:47.435Z,73.89
2022-11-25T00:52:21.643Z,73.86
2022-11-25T00:54:50.973Z,73.85
2022-11-25T00:57:20.906Z,73.65
2022-11-25T00:59:49.391Z,73.40
2022-11-25T01:02:19.027Z,73.30
2022-11-25T01:04:47.375Z,73.48
2022-11-25T01:07:17.850Z,73.79
2022-11-25T01:09:46.251Z,74.19
2022-11-25T01:12:14.458Z,74.17
2022-11-25T01:14:42.423Z,74.20
2022-11-25T01:17:10.721Z,73.99
2022-11-25T01:19:40.588Z,74.00
2022-11-25T01:22:09.519Z,73.83
2022-11-25T01:24:37.849Z,73.45
2022-11-25T01:27:06.108Z,72.87
2022-11-25T01:29:34.119Z,72.62
2022-11-25T01:32:02.393Z,72.62
2022-11-25T01:34:32.871Z,72.82
2022-11-25T01:37:01.104Z,73.10
2022-11-25T01:39:32.966Z,73.14
2022-11-25T01:42:02.146Z,73.07
2022-11-25T01:44:32.718Z,73.03
2022-11-25T01:47:07.222Z,72.60
2022-11-25T01:49:59.631Z,72.34
2022-11-25T01:52:32.125Z,72.70
2022-11-25T01:55:03.828Z,72.79
2022-11-25T01:57:54.564Z,72.64
2022-11-25T02:00:25.637Z,72.98
2022-11-25T02:02:55.663Z,72.93
2022-11-25T02:05:46.729Z,72.86
2022-11-25T02:08:16.180Z,73.05
2022-11-25T02:10:44.849Z,72.97
2022-11-25T02:13:12.975Z,72.91
2022-11-25T02:15:41.042Z,72.95
2022-11-25T02:18:09.254Z,73.03
2022-11-25T02:20:39.288Z,73.21
2022-11-25T02:23:55.659Z,73.39
2022-11-25T02:26:24.243Z,73.51
2022-11-25T02:28:53.121Z,73.19
2022-11-25T02:31:22.529Z,73.30
2022-11-25T02:33:50.812Z,73.05
2022-11-25T02:36:22.894Z,72.92
2022-11-25T02:38:57.065Z,73.14
2022-11-25T02:41:31.164Z,73.24
2022-11-25T02:44:01.654Z,73.09
2022-11-25T02:46:30.562Z,73.09
2022-11-25T02:49:15.067Z,73.31
2022-11-25T02:51:45.395Z,73.51
2022-11-25T02:54:14.445Z,73.54
2022-11-25T02:56:43.254Z,73.58
2022-11-25T02:59:12.185Z,73.24
2022-11-25T03:01:40.597Z,73.01
2022-11-25T03:04:10.875Z,72.85
2022-11-25T03:06:38.958Z,72.70
2022-11-25T03:09:08.000Z,72.69
2022-11-25T03:11:58.042Z,72.52
2022-11-25T03:14:26.155Z,72.82
2022-11-25T03:16:54.556Z,72.93
2022-11-25T03:19:22.622Z,73.16
2022-11-25T03:21:53.073Z,73.22
2022-11-25T03:24:21.123Z,73.28
2022-11-25T03:26:49.610Z,73.14
2022-11-25T03:29:18.245Z,72.72
2022-11-25T03:31:46.479Z,72.67
2022-11-25T03:34:15.080Z,72.78
2022-11-25T03:36:43.422Z,72.89
2022-11-25T03:39:11.405Z,72.99
2022-11-25T03:41:39.506Z,73.43
2022-11-25T03:44:07.679Z,73.37
2022-11-25T03:46:36.723Z,73.33
2022-11-25T03:49:06.438Z,73.29
2022-11-25T03:51:35.395Z,73.32
2022-11-25T03:54:03.691Z,73.32
2022-11-25T03:56:36.133Z,73.36
2022-11-25T03:59:04.517Z,73.31
2022-11-25T04:01:33.513Z,73.28
2022-11-25T04:04:01.430Z,73.57
2022-11-25T04:06:30.132Z,73.54
2022-11-25T04:08:59.006Z,73.30
2022-11-25T04:11:47.550Z,73.40
2022-11-25T04:14:15.487Z,73.26
2022-11-25T04:16:43.497Z,73.22
2022-11-25T04:19:11.643Z,73.37
2022-11-25T04:21:40.091Z,73.34
2022-11-25T04:24:09.275Z,73.44
2022-11-25T04:26:37.222Z,73.69
2022-11-25T04:29:05.708Z,73.90
2022-11-25T04:31:35.081Z,73.87
2022-11-25T04:34:03.597Z,74.10
2022-11-25T04:36:31.982Z,74.11
2022-11-25T04:39:00.357Z,73.93
2022-11-25T04:41:28.910Z,74.03
2022-11-25T04:43:59.772Z,74.02
2022-11-25T04:46:36.488Z,74.12
2022-11-25T04:49:05.231Z,74.21
2022-11-25T04:51:33.646Z,74.64
2022-11-25T04:54:03.847Z,74.38
2022-11-25T04:56:32.334Z,74.28
2022-11-25T04:59:19.290Z,74.48
2022-11-25T05:01:48.279Z,74.33
2022-11-25T05:04:28.356Z,74.35
2022-11-25T05:06:56.708Z,74.31
2022-11-25T05:09:25.351Z,74.49
2022-11-25T05:12:03.709Z,74.56
2022-11-25T05:14:32.261Z,74.51
2022-11-25T05:17:00.355Z,74.56
2022-11-25T05:19:28.675Z,74.63
2022-11-25T05:21:57.382Z,74.66
2022-11-25T05:24:26.158Z,74.10
2022-11-25T05:26:55.149Z,74.10
2022-11-25T05:29:23.494Z,74.24
2022-11-25T05:31:51.766Z,74.94
2022-11-25T05:34:20.043Z,76.29
2022-11-25T05:36:48.972Z,74.74
2022-11-25T05:39:18.778Z,74.11
2022-11-25T05:42:07.200Z,74.03
2022-11-25T05:44:35.623Z,74.07
2022-11-25T05:47:04.199Z,74.14
2022-11-25T05:49:33.238Z,74.18
2022-11-25T05:52:02.197Z,74.56
2022-11-25T05:54:33.687Z,74.48
2022-11-25T05:57:02.406Z,73.98
2022-11-25T05:59:34.320Z,73.94
2022-11-25T06:02:13.146Z,73.95
2022-11-25T06:04:41.785Z,74.18
2022-11-25T06:07:09.961Z,73.98
2022-11-25T06:09:38.390Z,73.12
2022-11-25T06:12:07.216Z,72.89
2022-11-25T06:14:38.685Z,73.00
2022-11-25T06:17:08.178Z,72.75
2022-11-25T06:19:43.136Z,72.94
2022-11-25T06:22:11.650Z,73.42
2022-11-25T06:24:40.112Z,73.62
2022-11-25T06:27:08.761Z,72.98
2022-11-25T06:29:36.976Z,73.12
2022-11-25T06:32:05.783Z,73.03
2022-11-25T06:35:06.072Z,73.12
2022-11-25T06:37:42.247Z,73.24
2022-11-25T06:40:10.506Z,75.01
2022-11-25T06:42:39.218Z,73.40
2022-11-25T06:45:07.712Z,72.63
2022-11-25T06:47:35.670Z,72.52
2022-11-25T06:50:04.112Z,72.81
2022-11-25T06:52:32.152Z,72.12
2022-11-25T06:55:00.420Z,71.86
2022-11-25T06:57:28.522Z,71.68
2022-11-25T06:59:56.455Z,71.24
2022-11-25T07:02:24.357Z,71.29
2022-11-25T07:04:52.431Z,71.31
2022-11-25T07:07:20.823Z,70.96
2022-11-25T07:09:48.779Z,70.85
2022-11-25T07:12:16.793Z,70.84
2022-11-25T07:14:44.834Z,70.19
2022-11-25T07:17:13.285Z,70.13
2022-11-25T07:19:41.403Z,70.11
2022-11-25T07:22:09.639Z,69.03
2022-11-25T07:24:38.231Z,68.60
2022-11-25T07:27:06.935Z,68.56
2022-11-25T07:29:54.552Z,68.34
2022-11-25T07:32:24.278Z,67.71
2022-11-25T07:34:52.589Z,67.63
2022-11-25T07:37:20.734Z,67.96
2022-11-25T07:39:48.948Z,67.93
2022-11-25T07:42:17.151Z,68.03
2022-11-25T07:44:45.035Z,67.61
2022-11-25T07:47:39.219Z,68.16
2022-11-25T07:50:08.864Z,68.45
2022-11-25T07:52:39.156Z,68.67
2022-11-25T07:55:07.681Z,68.54
2022-11-25T07:57:35.737Z,67.19
2022-11-25T08:00:05.093Z,66.39
2022-11-25T08:02:39.893Z,66.64
2022-11-25T08:05:08.420Z,66.82
2022-11-25T08:07:37.005Z,66.78
2022-11-25T08:10:05.745Z,66.43
2022-11-25T08:12:35.083Z,66.07
2022-11-25T08:15:03.241Z,65.84
2022-11-25T08:17:31.438Z,65.27
2022-11-25T08:19:59.376Z,65.55
2022-11-25T08:22:28.612Z,65.53
2022-11-25T08:24:56.841Z,65.26
2022-11-25T08:27:24.867Z,65.47
2022-11-25T08:29:53.172Z,65.54
2022-11-25T08:32:21.110Z,65.08
2022-11-25T08:34:49.216Z,64.99
2022-11-25T08:37:17.223Z,64.78
2022-11-25T08:39:53.642Z,64.41
2022-11-25T08:42:22.582Z,64.44
2022-11-25T08:44:55.701Z,64.31
2022-11-25T08:47:24.890Z,64.53
2022-11-25T08:49:54.197Z,64.45
2022-11-25T08:52:23.155Z,64.23
2022-11-25T08:54:51.309Z,63.74
2022-11-25T08:57:19.602Z,64.02
2022-11-25T08:59:47.563Z,64.20
2022-11-25T09:02:17.507Z,63.36
2022-11-25T09:04:45.923Z,63.64
2022-11-25T09:07:14.013Z,64.08
2022-11-25T09:09:42.994Z,63.78
2022-11-25T09:12:11.068Z,62.77
2022-11-25T09:14:40.593Z,62.65
2022-11-25T09:17:12.570Z,63.15
2022-11-25T09:19:40.810Z,62.61
2022-11-25T09:22:08.915Z,62.94
2022-11-25T09:24:37.204Z,63.15
2022-11-25T09:27:05.671Z,63.07
2022-11-25T09:29:34.099Z,63.20
2022-11-25T09:32:02.496Z,63.27
2022-11-25T09:34:30.722Z,63.07
2022-11-25T09:36:58.678Z,62.95
2022-11-25T09:39:29.790Z,62.58
2022-11-25T09:42:42.935Z,62.06
2022-11-25T09:46:02.209Z,61.95
2022-11-25T09:48:56.769Z,62.15
2022-11-25T09:51:35.885Z,62.11
2022-11-25T09:54:10.255Z,62.38
2022-11-25T09:56:45.145Z,62.50
2022-11-25T09:59:19.197Z,62.78
2022-11-25T10:01:57.806Z,62.69
2022-11-25T10:04:32.351Z,62.47
2022-11-25T10:07:04.153Z,62.48
2022-11-25T10:09:36.154Z,62.05
2022-11-25T10:12:25.626Z,62.22
2022-11-25T10:14:59.995Z,61.86
2022-11-25T10:17:36.767Z,61.89
2022-11-25T10:20:21.682Z,61.93
2022-11-25T10:23:01.289Z,62.20
2022-11-25T10:25:42.767Z,61.56
2022-11-25T10:28:33.219Z,61.88
2022-11-25T10:31:11.150Z,62.31
2022-11-25T10:33:44.741Z,61.75
2022-11-25T10:36:15.934Z,61.47
2022-11-25T10:38:52.958Z,61.59
2022-11-25T10:41:26.272Z,61.50
2022-11-25T10:43:54.522Z,61.52
2022-11-25T10:47:11.671Z,61.19
2022-11-25T10:49:38.318Z,61.50
2022-11-25T10:52:21.905Z,61.29
2022-11-25T10:54:58.535Z,60.92
2022-11-25T10:57:29.247Z,60.78
2022-11-25T10:59:59.929Z,60.77
2022-11-25T11:02:29.476Z,61.08
2022-11-25T11:05:10.355Z,61.24
2022-11-25T11:07:44.836Z,61.46
2022-11-25T11:10:21.816Z,62.04
2022-11-25T11:12:56.810Z,62.80
2022-11-25T11:15:31.635Z,61.31
2022-11-25T11:18:21.086Z,60.37
2022-11-25T11:20:51.889Z,61.03
2022-11-25T11:23:20.423Z,65.90
2022-11-25T11:25:56.512Z,62.52
2022-11-25T11:28:29.630Z,61.58
2022-11-25T11:31:02.268Z,61.02
2022-11-25T11:33:36.403Z,60.36
2022-11-25T11:36:23.002Z,60.19
2022-11-25T11:39:01.583Z,60.30
2022-11-25T11:41:48.651Z,59.85
2022-11-25T11:44:37.718Z,60.05
2022-11-25T11:47:24.627Z,59.68
2022-11-25T11:49:52.846Z,59.50
2022-11-25T11:52:53.026Z,58.95
2022-11-25T11:55:45.808Z,58.93
2022-11-25T11:58:25.614Z,59.26
2022-11-25T12:01:07.063Z,59.21
2022-11-25T12:03:44.331Z,59.60
2022-11-25T12:06:15.004Z,59.50
2022-11-25T12:08:59.579Z,59.14
2022-11-25T12:11:35.425Z,58.70
2022-11-25T12:14:31.389Z,58.78
2022-11-25T12:17:03.006Z,58.92
2022-11-25T12:19:41.820Z,59.29
2022-11-25T12:22:34.272Z,59.27
2022-11-25T12:25:14.229Z,59.00
2022-11-25T12:27:53.388Z,58.78
2022-11-25T12:30:23.580Z,59.09
2022-11-25T12:33:11.189Z,59.18
2022-11-25T12:36:06.126Z,59.07
2022-11-25T12:38:43.246Z,58.51
2022-11-25T12:41:39.936Z,58.18
2022-11-25T12:44:29.730Z,58.16
2022-11-25T12:46:58.336Z,58.44
2022-11-25T12:49:30.789Z,58.36
2022-11-25T12:52:20.070Z,57.27
2022-11-25T12:55:23.425Z,56.79
2022-11-25T12:58:08.261Z,65.99
2022-11-25T13:01:02.107Z,64.59
2022-11-25T13:03:51.687Z,56.86
2022-11-25T13:06:38.965Z,56.80
2022-11-25T13:09:32.045Z,55.45
2022-11-25T13:12:17.170Z,53.53
2022-11-25T13:15:13.901Z,53.70
2022-11-25T13:17:45.612Z,53.80
2022-11-25T13:20:29.805Z,54.44
2022-11-25T13:23:10.815Z,54.47
2022-11-25T13:25:42.219Z,54.87
2022-11-25T13:28:28.725Z,54.88
2022-11-25T13:31:18.087Z,55.01
2022-11-25T13:33:46.125Z,55.31
2022-11-25T13:36:23.424Z,55.51
2022-11-25T13:38:51.366Z,55.52
2022-11-25T13:41:45.478Z,55.43
2022-11-25T13:44:28.643Z,55.56
2022-11-25T13:46:58.693Z,55.73
2022-11-25T13:49:41.904Z,55.80
2022-11-25T13:52:12.887Z,55.50
2022-11-25T13:54:48.052Z,55.70
2022-11-25T13:57:25.220Z,55.90
2022-11-25T13:59:57.178Z,56.42
2022-11-25T14:02:30.930Z,56.63
2022-11-25T14:05:11.596Z,56.76
2022-11-25T14:08:07.975Z,56.69
2022-11-25T14:10:45.902Z,56.73
2022-11-25T14:13:17.166Z,56.78
2022-11-25T14:16:17.943Z,56.74
2022-11-25T14:22:31.538Z,57.42
2022-11-25T14:25:23.073Z,58.49
2022-11-25T14:28:03.899Z,59.50
2022-11-25T14:30:33.201Z,59.32
2022-11-25T14:33:10.129Z,58.91
2022-11-25T14:35:47.849Z,58.47
2022-11-25T14:38:22.565Z,58.47
2022-11-25T14:41:01.802Z,58.67
2022-11-25T14:43:34.995Z,58.99
2022-11-25T14:46:21.497Z,65.08
2022-11-25T14:48:59.796Z,66.45
2022-11-25T14:51:35.334Z,62.96
2022-11-25T14:54:07.205Z,62.22
2022-11-25T14:56:37.312Z,61.35
2022-11-25T14:59:09.905Z,60.98
2022-11-25T15:01:39.732Z,61.50
2022-11-25T15:04:17.481Z,61.33
2022-11-25T15:06:54.361Z,61.27
2022-11-25T15:09:26.228Z,61.45
2022-11-25T15:11:58.978Z,61.71
2022-11-25T15:14:50.910Z,61.99
2022-11-25T15:17:28.941Z,62.27
2022-11-25T15:20:00.245Z,62.42
2022-11-25T15:22:29.375Z,62.69
2022-11-25T15:25:14.503Z,63.08
2022-11-25T15:27:49.798Z,63.47
2022-11-25T15:30:29.538Z,63.74
2022-11-25T15:32:58.188Z,63.80
2022-11-25T15:35:27.566Z,63.81
2022-11-25T15:37:55.853Z,63.94
2022-11-25T15:40:36.682Z,64.06
2022-11-25T15:43:08.148Z,64.17
2022-11-25T15:45:45.963Z,64.24
2022-11-25T15:48:25.923Z,64.20
2022-11-25T15:51:06.857Z,64.35
2022-11-25T15:53:38.023Z,64.60
2022-11-25T15:56:07.665Z,64.86
2022-11-25T15:58:35.743Z,65.12
2022-11-25T16:01:18.243Z,65.15
2022-11-25T16:03:48.054Z,65.21
2022-11-25T16:06:27.915Z,65.21
2022-11-25T16:09:02.137Z,65.34
2022-11-25T16:11:44.250Z,65.80
2022-11-25T16:14:28.880Z,65.93
2022-11-25T16:17:06.219Z,66.32
2022-11-25T16:19:41.048Z,67.51
2022-11-25T16:22:15.264Z,67.99
2022-11-25T16:24:50.763Z,68.29
2022-11-25T16:27:28.440Z,67.96
2022-11-25T16:30:08.490Z,70.02
2022-11-25T16:32:36.571Z,71.73
2022-11-25T16:35:15.462Z,69.85
2022-11-25T16:37:48.458Z,68.71
2022-11-25T16:40:18.895Z,68.25
2022-11-25T16:42:49.849Z,71.49
2022-11-25T16:45:21.435Z,72.48
2022-11-25T16:47:59.753Z,70.40
2022-11-25T16:50:44.048Z,70.11
2022-11-25T16:53:14.841Z,69.35
2022-11-25T16:55:45.666Z,68.44
2022-11-25T16:58:20.288Z,68.20
2022-11-25T17:00:52.683Z,68.04
2022-11-25T17:03:22.473Z,67.98
2022-11-25T17:05:50.836Z,67.85
2022-11-25T17:08:19.486Z,67.93
2022-11-25T17:10:48.334Z,68.08
2022-11-25T17:13:26.025Z,68.18
2022-11-25T17:15:54.289Z,68.24
2022-11-25T17:18:22.820Z,68.60
2022-11-25T17:20:50.997Z,68.92
2022-11-25T17:23:19.242Z,69.02
2022-11-25T17:25:49.133Z,68.80
2022-11-25T17:28:20.535Z,68.57
2022-11-25T17:30:49.267Z,68.32
2022-11-25T17:33:20.227Z,68.56
2022-11-25T17:35:48.195Z,68.68
2022-11-25T17:38:21.288Z,68.54
2022-11-25T17:40:50.639Z,68.73
2022-11-25T17:43:21.218Z,68.93
2022-11-25T17:45:49.852Z,69.05
2022-11-25T17:48:18.738Z,69.21
2022-11-25T17:50:47.344Z,69.26
2022-11-25T17:53:15.550Z,69.26
2022-11-25T17:55:43.725Z,69.12
2022-11-25T17:58:14.691Z,69.10
2022-11-25T18:00:43.871Z,69.11
2022-11-25T18:03:16.643Z,69.34
2022-11-25T18:05:46.298Z,69.21
2022-11-25T18:08:14.974Z,69.37
2022-11-25T18:10:45.799Z,69.60
2022-11-25T18:13:15.932Z,69.75
2022-11-25T18:15:44.107Z,69.91
2022-11-25T18:18:24.544Z,69.69
2022-11-25T18:20:53.642Z,69.68
2022-11-25T18:23:22.171Z,69.49
2022-11-25T18:25:51.118Z,69.43
2022-11-25T18:28:22.144Z,69.47
2022-11-25T18:30:50.759Z,69.80
2022-11-25T18:33:19.558Z,70.07
2022-11-25T18:35:48.334Z,70.65
2022-11-25T18:38:16.519Z,70.92
2022-11-25T18:40:50.233Z,71.01
2022-11-25T18:43:25.183Z,70.90
2022-11-25T18:45:54.307Z,70.79
2022-11-25T18:48:25.279Z,70.89
2022-11-25T18:50:56.232Z,70.82
2022-11-25T18:53:24.478Z,70.87
2022-11-25T18:55:53.091Z,71.04
2022-11-25T18:58:27.340Z,71.29
2022-11-25T19:01:03.198Z,71.47
2022-11-25T19:03:31.375Z,71.60
2022-11-25T19:06:01.123Z,71.75
2022-11-25T19:08:30.189Z,71.62
2022-11-25T19:10:58.217Z,71.37
2022-11-25T19:13:30.741Z,71.21
2022-11-25T19:16:13.926Z,71.31
2022-11-25T19:18:44.908Z,71.29
2022-11-25T19:21:18.432Z,71.12
2022-11-25T19:23:47.020Z,71.23
2022-11-25T19:26:26.944Z,71.51
2022-11-25T19:29:01.598Z,71.64
2022-11-25T19:31:33.354Z,71.76
2022-11-25T19:34:01.650Z,71.65
2022-11-25T19:36:31.212Z,71.33
2022-11-25T19:38:59.654Z,71.10
2022-11-25T19:41:27.851Z,71.07
2022-11-25T19:43:55.836Z,70.95
2022-11-25T19:46:46.177Z,70.80
2022-11-25T19:49:20.034Z,70.68
2022-11-25T19:51:49.043Z,70.86
2022-11-25T19:54:19.542Z,71.16
2022-11-25T19:56:47.533Z,71.18
2022-11-25T19:59:15.675Z,71.20
2022-11-25T20:01:45.510Z,71.08
2022-11-25T20:04:20.638Z,70.84
2022-11-25T20:06:49.361Z,70.86
2022-11-25T20:09:17.316Z,70.83
2022-11-25T20:11:45.273Z,70.78
2022-11-25T20:14:13.227Z,70.63
2022-11-25T20:16:41.886Z,70.52
2022-11-25T20:19:18.330Z,70.81
2022-11-25T20:21:46.882Z,71.13
2022-11-25T20:24:19.373Z,71.22
2022-11-25T20:26:48.956Z,71.16
2022-11-25T20:29:27.389Z,70.99
2022-11-25T20:31:58.438Z,70.87
2022-11-25T20:34:28.499Z,70.91
2022-11-25T20:36:56.701Z,70.73
2022-11-25T20:39:24.812Z,70.93
2022-11-25T20:41:53.126Z,71.05
2022-11-25T20:44:21.468Z,71.21
2022-11-25T20:46:49.671Z,71.52
2022-11-25T20:49:25.742Z,71.74
2022-11-25T20:51:54.000Z,71.66
2022-11-25T20:54:24.608Z,71.45
2022-11-25T20:56:52.535Z,71.31
2022-11-25T20:59:23.165Z,71.32
2022-11-25T21:01:52.773Z,71.32
2022-11-25T21:04:21.056Z,71.45
2022-11-25T21:06:49.038Z,71.28
2022-11-25T21:09:20.547Z,71.38
2022-11-25T21:11:49.231Z,71.58
2022-11-25T21:14:19.295Z,71.65
2022-11-25T21:16:47.757Z,71.70
2022-11-25T21:19:16.091Z,71.85
2022-11-25T21:21:46.345Z,71.74
2022-11-25T21:24:29.825Z,71.44
2022-11-25T21:27:00.647Z,71.20
2022-11-25T21:29:29.917Z,71.24
2022-11-25T21:31:57.910Z,71.23
2022-11-25T21:34:26.165Z,71.27
2022-11-25T21:36:54.877Z,71.52
2022-11-25T21:39:32.562Z,71.77
2022-11-25T21:42:04.989Z,71.97
2022-11-25T21:44:41.405Z,72.21
2022-11-25T21:47:22.250Z,72.23
2022-11-25T21:49:51.249Z,72.00
2022-11-25T21:52:19.409Z,71.76
2022-11-25T21:54:47.461Z,71.81
2022-11-25T21:57:22.819Z,71.81
2022-11-25T21:59:50.956Z,71.94
2022-11-25T22:02:22.107Z,72.13
2022-11-25T22:04:50.797Z,72.40
2022-11-25T22:07:19.062Z,72.43
2022-11-25T22:09:47.065Z,72.55
2022-11-25T22:12:29.585Z,72.37
2022-11-25T22:14:59.717Z,72.30
2022-11-25T22:17:29.306Z,72.26
2022-11-25T22:19:57.428Z,72.30
2022-11-25T22:22:25.684Z,72.23
2022-11-25T22:24:53.609Z,72.16
2022-11-25T22:27:24.953Z,72.34
2022-11-25T22:29:54.567Z,72.77
2022-11-25T22:32:22.929Z,72.93
2022-11-25T22:34:50.909Z,72.64
2022-11-25T22:37:24.687Z,72.48
2022-11-25T22:39:52.887Z,72.20
2022-11-25T22:42:31.284Z,72.19
2022-11-25T22:45:02.564Z,72.06
2022-11-25T22:47:44.147Z,71.94
2022-11-25T22:50:33.740Z,71.76
2022-11-25T22:53:02.391Z,71.89
2022-11-25T22:55:33.050Z,72.27
2022-11-25T22:58:04.080Z,72.51
2022-11-25T23:00:36.217Z,72.61
2022-11-25T23:03:33.964Z,72.47
2022-11-25T23:06:03.281Z,72.39
2022-11-25T23:08:31.807Z,72.34
2022-11-25T23:11:00.091Z,72.32
2022-11-25T23:13:27.994Z,72.34
2022-11-25T23:15:58.348Z,72.45
2022-11-25T23:18:38.743Z,72.49
2022-11-25T23:21:14.503Z,72.70
2022-11-25T23:23:42.343Z,72.66
2022-11-25T23:26:11.742Z,72.66
2022-11-25T23:28:40.320Z,72.40
2022-11-25T23:31:12.783Z,72.20
2022-11-25T23:33:44.713Z,72.14
2022-11-25T23:36:42.233Z,71.89
2022-11-25T23:39:19.415Z,71.88
2022-11-25T23:41:48.810Z,71.89
2022-11-25T23:44:29.180Z,71.98
2022-11-25T23:47:01.243Z,72.16
2022-11-25T23:49:44.363Z,72.28
2022-11-25T23:52:18.266Z,72.28
2022-11-25T23:54:48.690Z,72.16
2022-11-25T23:57:22.992Z,71.90
2022-11-25T23:59:51.865Z,71.66
